createdAt,value
2023-02-06T00:03:30.968Z,11.98
2023-02-06T00:06:18.130Z,14.65
2023-02-06T00:09:06.261Z,12.32
2023-02-06T00:11:53.356Z,12.30
2023-02-06T00:14:40.777Z,16.60
2023-02-06T00:17:28.046Z,13.65
2023-02-06T00:20:15.188Z,13.85
2023-02-06T00:23:02.292Z,12.63
2023-02-06T00:25:49.537Z,10.27
2023-02-06T00:28:36.657Z,10.90
2023-02-06T00:31:23.837Z,11.95
2023-02-06T00:34:10.939Z,15.55
2023-02-06T00:36:58.169Z,10.75
2023-02-06T00:39:46.350Z,8.98
2023-02-06T00:42:33.689Z,11.15
2023-02-06T00:45:20.751Z,10.30
2023-02-06T00:48:09.419Z,10.40
2023-02-06T00:50:56.500Z,12.05
2023-02-06T00:53:43.645Z,12.13
2023-02-06T00:56:30.757Z,8.48
2023-02-06T00:59:17.982Z,11.38
2023-02-06T01:02:05.089Z,9.73
2023-02-06T01:04:52.186Z,13.10
2023-02-06T01:07:40.119Z,9.23
2023-02-06T01:10:27.343Z,8.65
2023-02-06T01:13:14.508Z,11.45
2023-02-06T01:16:01.698Z,9.60
2023-02-06T01:18:49.166Z,9.27
2023-02-06T01:21:37.061Z,8.35
2023-02-06T01:24:24.192Z,9.48
2023-02-06T01:27:11.350Z,10.93
2023-02-06T01:29:58.490Z,9.55
2023-02-06T01:32:45.736Z,9.40
2023-02-06T01:35:32.941Z,10.00
2023-02-06T01:38:20.147Z,10.77
2023-02-06T01:41:08.280Z,14.82
2023-02-06T01:44:16.525Z,10.13
2023-02-06T01:47:03.707Z,10.75
2023-02-06T01:49:51.293Z,11.45
2023-02-06T01:52:38.645Z,10.77
2023-02-06T01:55:26.098Z,11.75
2023-02-06T01:58:19.499Z,13.95
2023-02-06T02:01:07.472Z,11.88
2023-02-06T02:03:59.798Z,13.45
2023-02-06T02:07:07.931Z,11.52
2023-02-06T02:09:55.115Z,11.40
2023-02-06T02:12:42.268Z,12.38
2023-02-06T02:15:46.548Z,12.52
2023-02-06T02:18:51.415Z,12.32
2023-02-06T02:21:56.707Z,12.75
2023-02-06T02:24:58.830Z,10.82
2023-02-06T02:27:58.028Z,13.25
2023-02-06T02:30:57.298Z,12.80
2023-02-06T02:34:15.757Z,9.48
2023-02-06T02:37:40.937Z,11.85
2023-02-06T02:40:46.049Z,17.70
2023-02-06T02:43:56.966Z,12.88
2023-02-06T02:46:49.729Z,14.52
2023-02-06T02:49:39.745Z,13.25
2023-02-06T02:55:21.624Z,12.95
2023-02-06T02:58:13.260Z,15.05
2023-02-06T03:01:04.233Z,14.15
2023-02-06T03:03:56.784Z,13.07
2023-02-06T03:06:58.531Z,15.43
2023-02-06T03:10:05.834Z,13.57
2023-02-06T03:13:03.350Z,15.10
2023-02-06T03:16:05.528Z,15.73
2023-02-06T03:19:04.510Z,15.30
2023-02-06T03:21:51.623Z,14.10
2023-02-06T03:24:40.246Z,15.43
2023-02-06T03:27:28.543Z,14.35
2023-02-06T03:30:18.691Z,14.57
2023-02-06T03:33:08.497Z,13.20
2023-02-06T03:35:57.058Z,15.27
2023-02-06T03:38:49.444Z,15.93
2023-02-06T03:41:39.268Z,16.52
2023-02-06T03:44:30.670Z,17.42
2023-02-06T03:47:20.556Z,15.50
2023-02-06T03:50:10.804Z,15.32
2023-02-06T03:53:01.662Z,12.98
2023-02-06T03:55:54.424Z,14.30
2023-02-06T03:58:41.862Z,16.73
2023-02-06T04:01:29.586Z,14.70
2023-02-06T04:04:21.311Z,15.30
2023-02-06T04:07:22.973Z,18.05
2023-02-06T04:10:10.402Z,13.50
2023-02-06T04:12:57.538Z,15.13
2023-02-06T04:15:44.608Z,14.23
2023-02-06T04:18:31.748Z,14.43
2023-02-06T04:21:18.887Z,17.38
2023-02-06T04:24:06.281Z,16.35
2023-02-06T04:26:53.866Z,19.98
2023-02-06T04:29:41.011Z,13.50
2023-02-06T04:32:28.133Z,17.45
2023-02-06T04:35:15.204Z,15.43
2023-02-06T04:38:02.392Z,15.77
2023-02-06T04:40:49.556Z,14.70
2023-02-06T04:43:36.733Z,12.73
2023-02-06T04:46:23.828Z,15.63
2023-02-06T04:49:11.396Z,15.68
2023-02-06T04:51:58.507Z,16.88
2023-02-06T04:54:45.652Z,13.70
2023-02-06T04:57:32.666Z,18.13
2023-02-06T05:00:19.807Z,15.73
2023-02-06T05:03:07.116Z,13.50
2023-02-06T05:05:54.540Z,18.50
2023-02-06T05:08:41.800Z,16.70
2023-02-06T05:11:34.169Z,16.50
2023-02-06T05:14:49.316Z,19.70
2023-02-06T05:17:39.198Z,13.70
2023-02-06T05:20:26.221Z,13.98
2023-02-06T05:23:13.348Z,12.85
2023-02-06T05:26:00.664Z,18.50
2023-02-06T05:28:48.031Z,16.40
2023-02-06T05:31:35.468Z,15.88
2023-02-06T05:34:22.695Z,17.17
2023-02-06T05:37:43.974Z,14.88
2023-02-06T05:44:38.236Z,16.73
2023-02-06T05:47:26.112Z,15.93
2023-02-06T05:50:13.164Z,17.75
2023-02-06T05:53:00.181Z,25.30
2023-02-06T05:55:47.274Z,58.85
2023-02-06T05:58:34.567Z,49.00
2023-02-06T06:01:21.601Z,42.70
2023-02-06T06:04:08.690Z,32.53
2023-02-06T06:06:56.080Z,28.42
2023-02-06T06:09:43.164Z,26.65
2023-02-06T06:12:30.257Z,22.48
2023-02-06T06:15:17.338Z,19.77
2023-02-06T06:18:04.470Z,19.13
2023-02-06T06:20:51.475Z,21.77
2023-02-06T06:23:38.598Z,17.85
2023-02-06T06:26:25.901Z,18.85
2023-02-06T06:29:13.060Z,21.05
2023-02-06T06:32:00.139Z,20.90
2023-02-06T06:34:47.337Z,25.65
2023-02-06T06:37:34.385Z,23.05
2023-02-06T06:40:21.545Z,20.90
2023-02-06T06:43:08.618Z,20.23
2023-02-06T06:45:55.843Z,18.58
2023-02-06T06:48:42.885Z,18.92
2023-02-06T06:51:30.247Z,22.45
2023-02-06T06:54:17.278Z,17.48
2023-02-06T06:57:04.406Z,20.20
2023-02-06T06:59:51.645Z,18.38
2023-02-06T07:02:38.787Z,18.13
2023-02-06T07:05:26.022Z,15.15
2023-02-06T07:08:13.100Z,16.95
2023-02-06T07:11:00.150Z,20.90
2023-02-06T07:13:47.367Z,23.85
2023-02-06T07:16:34.428Z,23.58
2023-02-06T07:19:21.607Z,26.52
2023-02-06T07:22:08.618Z,22.80
2023-02-06T07:24:55.796Z,23.45
2023-02-06T07:27:42.868Z,30.08
2023-02-06T07:30:29.972Z,28.63
2023-02-06T07:33:17.033Z,29.70
2023-02-06T07:36:04.457Z,25.33
2023-02-06T07:38:51.529Z,22.23
2023-02-06T07:41:38.589Z,26.70
2023-02-06T07:44:25.609Z,31.80
2023-02-06T07:47:12.682Z,30.30
2023-02-06T07:49:59.696Z,27.80
2023-02-06T07:52:46.776Z,29.63
2023-02-06T07:55:36.640Z,25.52
2023-02-06T07:58:23.963Z,22.10
2023-02-06T08:01:11.329Z,20.15
2023-02-06T08:03:58.832Z,19.42
2023-02-06T08:07:05.889Z,19.48
2023-02-06T08:09:52.994Z,19.38
2023-02-06T08:13:26.797Z,17.17
2023-02-06T08:16:16.963Z,15.23
2023-02-06T08:21:51.155Z,22.35
2023-02-06T08:24:38.295Z,16.35
2023-02-06T08:27:25.333Z,17.60
2023-02-06T08:30:13.040Z,15.18
2023-02-06T08:33:00.098Z,14.43
2023-02-06T08:35:47.185Z,14.63
2023-02-06T08:38:35.011Z,15.88
2023-02-06T08:41:26.867Z,13.43
2023-02-06T08:44:16.804Z,19.00
2023-02-06T08:47:09.999Z,15.93
2023-02-06T08:49:57.639Z,13.93
2023-02-06T08:52:44.766Z,12.10
2023-02-06T08:55:31.822Z,14.27
2023-02-06T08:58:19.173Z,12.15
2023-02-06T09:01:11.071Z,15.20
2023-02-06T09:04:00.331Z,14.57
2023-02-06T09:06:49.264Z,12.87
2023-02-06T09:09:36.423Z,16.65
2023-02-06T09:12:23.514Z,16.48
2023-02-06T09:15:10.789Z,24.88
2023-02-06T09:17:57.862Z,20.27
2023-02-06T09:20:46.265Z,17.45
2023-02-06T09:23:33.523Z,14.63
2023-02-06T09:26:23.725Z,15.35
2023-02-06T09:31:58.656Z,13.52
2023-02-06T09:34:45.946Z,13.05
2023-02-06T09:37:33.910Z,11.68
2023-02-06T09:40:27.044Z,10.95
2023-02-06T09:43:14.308Z,12.55
2023-02-06T09:46:04.812Z,14.48
2023-02-06T09:48:51.911Z,14.57
2023-02-06T09:52:16.089Z,14.32
2023-02-06T09:55:27.658Z,16.23
2023-02-06T09:58:23.912Z,12.18
2023-02-06T10:01:42.088Z,14.32
2023-02-06T10:04:40.540Z,13.48
2023-02-06T10:07:47.879Z,16.65
2023-02-06T10:10:49.805Z,10.60
2023-02-06T10:13:53.314Z,12.38
2023-02-06T10:16:53.174Z,10.38
2023-02-06T10:19:49.619Z,13.85
2023-02-06T10:22:48.366Z,13.70
2023-02-06T10:25:39.045Z,11.90
2023-02-06T10:28:29.484Z,10.23
2023-02-06T10:34:15.309Z,10.25
2023-02-06T10:37:09.436Z,9.70
2023-02-06T10:40:27.626Z,9.93
2023-02-06T10:43:20.579Z,10.93
2023-02-06T10:46:29.243Z,12.27
2023-02-06T10:49:32.256Z,8.30
2023-02-06T10:52:29.110Z,12.18
2023-02-06T10:55:29.587Z,9.48
2023-02-06T10:58:25.675Z,7.80
2023-02-06T11:01:25.743Z,9.63
2023-02-06T11:04:29.617Z,10.02
2023-02-06T11:07:25.192Z,10.60
2023-02-06T11:10:15.230Z,18.02
2023-02-06T11:13:15.374Z,11.20
2023-02-06T11:16:12.980Z,14.10
2023-02-06T11:19:09.180Z,10.52
2023-02-06T11:22:10.099Z,9.23
2023-02-06T11:25:31.557Z,12.30
2023-02-06T11:28:23.389Z,10.38
2023-02-06T11:31:10.780Z,9.02
2023-02-06T11:33:58.292Z,7.80
2023-02-06T11:36:45.409Z,9.68
2023-02-06T11:39:35.806Z,10.90
2023-02-06T11:42:28.552Z,8.95
2023-02-06T11:45:31.519Z,16.35
2023-02-06T11:48:36.726Z,11.18
2023-02-06T11:51:24.753Z,10.63
2023-02-06T11:54:29.613Z,11.68
2023-02-06T11:57:22.153Z,11.23
2023-02-06T12:00:27.580Z,9.60
2023-02-06T12:03:32.756Z,9.93
2023-02-06T12:06:35.595Z,11.68
2023-02-06T12:09:22.684Z,11.98
2023-02-06T12:12:25.458Z,10.88
2023-02-06T12:15:44.873Z,11.77
2023-02-06T12:18:42.448Z,12.57
2023-02-06T12:21:40.527Z,11.63
2023-02-06T12:24:41.223Z,12.60
2023-02-06T12:27:37.222Z,10.73
2023-02-06T12:31:09.406Z,9.15
2023-02-06T12:34:23.877Z,9.82
2023-02-06T12:37:37.891Z,11.02
2023-02-06T12:40:46.491Z,13.00
2023-02-06T12:43:36.855Z,12.00
2023-02-06T12:46:27.778Z,11.50
2023-02-06T12:49:26.850Z,10.00
2023-02-06T12:52:19.803Z,10.50
2023-02-06T12:55:21.896Z,14.68
2023-02-06T12:58:28.671Z,11.60
2023-02-06T13:01:35.862Z,9.75
2023-02-06T13:04:26.430Z,9.80
2023-02-06T13:07:16.523Z,11.63
2023-02-06T13:10:07.184Z,13.05
2023-02-06T13:12:59.865Z,12.55
2023-02-06T13:15:55.102Z,11.90
2023-02-06T13:18:42.298Z,10.95
2023-02-06T13:21:32.648Z,10.88
2023-02-06T13:24:21.375Z,14.63
2023-02-06T13:27:08.372Z,10.75
2023-02-06T13:29:55.441Z,9.88
2023-02-06T13:32:46.247Z,13.48
2023-02-06T13:35:33.353Z,14.15
2023-02-06T13:38:23.663Z,11.48
2023-02-06T13:41:16.525Z,9.43
2023-02-06T13:44:11.716Z,11.07
2023-02-06T13:47:17.022Z,11.18
2023-02-06T13:50:57.741Z,10.38
2023-02-06T13:54:20.059Z,9.32
2023-02-06T13:57:34.272Z,9.48
2023-02-06T14:00:24.172Z,11.25
2023-02-06T14:03:23.868Z,8.30
2023-02-06T14:06:10.953Z,10.90
2023-02-06T14:09:16.401Z,10.90
2023-02-06T14:12:39.540Z,10.57
2023-02-06T14:15:49.565Z,8.15
2023-02-06T14:18:52.769Z,10.77
2023-02-06T14:21:54.251Z,9.95
2023-02-06T14:24:54.070Z,8.65
2023-02-06T14:27:58.695Z,11.32
2023-02-06T14:30:48.601Z,9.65
2023-02-06T14:33:35.578Z,7.43
2023-02-06T14:36:31.646Z,9.30
2023-02-06T14:39:36.284Z,13.30
2023-02-06T14:42:45.208Z,10.20
2023-02-06T14:45:41.701Z,11.93
2023-02-06T14:48:38.943Z,9.93
2023-02-06T14:51:34.261Z,9.70
2023-02-06T14:54:41.851Z,9.68
2023-02-06T14:57:32.027Z,10.18
2023-02-06T15:00:21.037Z,9.48
2023-02-06T15:03:15.855Z,13.52
2023-02-06T15:06:10.372Z,12.43
2023-02-06T15:08:57.734Z,14.50
2023-02-06T15:11:51.231Z,11.82
2023-02-06T15:14:38.628Z,11.18
2023-02-06T15:17:28.839Z,10.75
2023-02-06T15:23:38.734Z,10.88
2023-02-06T15:27:19.867Z,11.90
2023-02-06T15:30:19.330Z,11.75
2023-02-06T15:33:10.869Z,11.02
2023-02-06T15:36:00.367Z,10.23
2023-02-06T15:38:48.010Z,13.23
2023-02-06T15:41:35.896Z,14.48
2023-02-06T15:44:22.936Z,10.07
2023-02-06T15:47:14.085Z,10.90
2023-02-06T15:50:01.284Z,11.45
2023-02-06T15:52:48.836Z,12.00
2023-02-06T15:55:36.873Z,14.05
2023-02-06T15:58:25.602Z,10.13
2023-02-06T16:01:19.310Z,10.18
2023-02-06T16:04:13.090Z,13.73
2023-02-06T16:07:12.363Z,8.55
2023-02-06T16:10:04.043Z,8.67
2023-02-06T16:12:52.603Z,10.32
2023-02-06T16:15:40.961Z,10.13
2023-02-06T16:18:34.030Z,14.55
2023-02-06T16:21:25.367Z,10.93
2023-02-06T16:24:17.831Z,15.55
2023-02-06T16:27:26.413Z,12.15
2023-02-06T16:30:20.886Z,13.35
2023-02-06T16:33:44.856Z,9.00
2023-02-06T16:36:33.661Z,9.30
2023-02-06T16:39:23.334Z,12.90
2023-02-06T16:42:18.837Z,14.13
2023-02-06T16:45:18.156Z,12.93
2023-02-06T16:48:11.924Z,10.60
2023-02-06T16:50:59.561Z,11.18
2023-02-06T16:53:50.369Z,12.30
2023-02-06T16:56:38.891Z,13.30
2023-02-06T16:59:26.089Z,12.43
2023-02-06T17:02:14.332Z,12.48
2023-02-06T17:05:01.759Z,12.45
2023-02-06T17:07:50.839Z,13.30
2023-02-06T17:10:38.267Z,12.30
2023-02-06T17:13:25.702Z,17.55
2023-02-06T17:16:19.425Z,13.02
2023-02-06T17:19:06.613Z,11.93
2023-02-06T17:21:53.828Z,15.48
2023-02-06T17:24:41.754Z,15.02
2023-02-06T17:27:28.767Z,14.52
2023-02-06T17:30:21.004Z,14.38
2023-02-06T17:33:08.908Z,20.85
2023-02-06T17:35:56.248Z,13.73
2023-02-06T17:38:44.493Z,13.10
2023-02-06T17:41:32.277Z,11.80
2023-02-06T17:44:20.700Z,13.00
2023-02-06T17:47:08.642Z,14.52
2023-02-06T17:49:57.296Z,13.75
2023-02-06T17:52:44.924Z,15.32
2023-02-06T17:55:32.370Z,15.15
2023-02-06T17:58:19.571Z,10.25
2023-02-06T18:01:14.957Z,10.52
2023-02-06T18:04:03.975Z,19.95
2023-02-06T18:06:51.034Z,11.93
2023-02-06T18:09:41.750Z,18.05
2023-02-06T18:12:29.380Z,15.73
2023-02-06T18:15:17.034Z,14.38
2023-02-06T18:18:05.083Z,20.25
2023-02-06T18:20:53.181Z,14.88
2023-02-06T18:23:40.890Z,15.60
2023-02-06T18:26:37.434Z,13.35
2023-02-06T18:29:47.328Z,12.60
2023-02-06T18:32:39.455Z,18.38
2023-02-06T18:35:28.114Z,14.57
2023-02-06T18:38:17.885Z,13.65
2023-02-06T18:41:08.531Z,14.68
2023-02-06T18:44:08.885Z,20.35
2023-02-06T18:46:56.478Z,11.00
2023-02-06T18:49:52.149Z,14.63
2023-02-06T18:52:40.011Z,15.95
2023-02-06T18:55:28.880Z,14.40
2023-02-06T18:58:19.869Z,17.02
2023-02-06T19:01:21.665Z,12.27
2023-02-06T19:04:09.557Z,12.68
2023-02-06T19:07:00.987Z,10.68
2023-02-06T19:09:48.992Z,12.43
2023-02-06T19:12:39.333Z,20.10
2023-02-06T19:15:27.511Z,18.30
2023-02-06T19:18:19.791Z,16.58
2023-02-06T19:21:20.342Z,19.77
2023-02-06T19:24:19.145Z,18.73
2023-02-06T19:27:13.799Z,19.70
2023-02-06T19:30:03.887Z,19.73
2023-02-06T19:35:41.818Z,17.40
2023-02-06T19:38:29.285Z,19.50
2023-02-06T19:41:22.143Z,15.90
2023-02-06T19:44:15.251Z,11.70
2023-02-06T19:47:04.629Z,13.60
2023-02-06T19:49:54.538Z,15.23
2023-02-06T19:52:49.938Z,17.02
2023-02-06T19:55:48.799Z,14.82
2023-02-06T19:58:38.925Z,18.42
2023-02-06T20:01:48.149Z,15.93
2023-02-06T20:04:37.000Z,20.00
2023-02-06T20:07:25.750Z,19.98
2023-02-06T20:10:13.620Z,17.42
2023-02-06T20:13:00.913Z,15.75
2023-02-06T20:15:48.894Z,23.33
2023-02-06T20:18:37.547Z,23.50
2023-02-06T20:21:29.246Z,24.60
2023-02-06T20:24:24.041Z,23.20
2023-02-06T20:27:13.655Z,26.48
2023-02-06T20:30:02.653Z,25.55
2023-02-06T20:32:50.652Z,21.00
2023-02-06T20:35:45.631Z,19.88
2023-02-06T20:38:33.504Z,26.70
2023-02-06T20:41:23.251Z,21.25
2023-02-06T20:44:14.197Z,22.60
2023-02-06T20:47:01.698Z,25.20
2023-02-06T20:49:49.452Z,21.33
2023-02-06T20:52:37.222Z,21.25
2023-02-06T20:55:24.940Z,23.58
2023-02-06T20:58:14.238Z,21.13
2023-02-06T21:01:03.199Z,15.93
2023-02-06T21:03:52.225Z,21.90
2023-02-06T21:06:40.862Z,24.38
2023-02-06T21:09:28.385Z,28.83
2023-02-06T21:12:17.824Z,23.95
2023-02-06T21:15:05.179Z,22.50
2023-02-06T21:17:52.465Z,22.20
2023-02-06T21:20:39.505Z,19.52
2023-02-06T21:23:27.178Z,28.10
2023-02-06T21:26:17.418Z,27.38
2023-02-06T21:32:07.203Z,26.67
2023-02-06T21:34:59.548Z,26.48
2023-02-06T21:37:47.659Z,25.08
2023-02-06T21:40:34.789Z,27.55
2023-02-06T21:43:21.864Z,26.52
2023-02-06T21:46:10.263Z,21.63
2023-02-06T21:48:57.479Z,26.23
2023-02-06T21:51:44.582Z,23.63
2023-02-06T21:54:31.867Z,21.13
2023-02-06T21:57:19.280Z,19.55
2023-02-06T22:00:06.995Z,21.80
2023-02-06T22:02:54.379Z,20.35
2023-02-06T22:05:41.728Z,23.90
2023-02-06T22:08:28.829Z,21.73
2023-02-06T22:11:19.320Z,21.80
2023-02-06T22:14:15.837Z,24.38
2023-02-06T22:17:02.840Z,25.38
2023-02-06T22:19:50.357Z,21.33
2023-02-06T22:22:38.835Z,28.17
2023-02-06T22:25:28.405Z,22.13
2023-02-06T22:28:15.630Z,22.20
2023-02-06T22:31:12.530Z,23.00
2023-02-06T22:34:00.598Z,25.58
2023-02-06T22:36:49.149Z,23.95
2023-02-06T22:39:36.203Z,26.63
2023-02-06T22:42:23.698Z,22.45
2023-02-06T22:45:10.705Z,25.42
2023-02-06T22:47:57.759Z,19.80
2023-02-06T22:50:44.745Z,25.52
2023-02-06T22:53:32.047Z,22.30
2023-02-06T22:56:27.765Z,31.33
2023-02-06T22:59:19.912Z,28.27
2023-02-06T23:02:06.959Z,22.85
2023-02-06T23:04:56.170Z,22.00
2023-02-06T23:07:43.282Z,18.07
2023-02-06T23:10:30.319Z,26.42
2023-02-06T23:13:17.356Z,26.80
2023-02-06T23:16:09.975Z,23.70
2023-02-06T23:18:57.072Z,21.52
2023-02-06T23:21:47.647Z,25.10
2023-02-06T23:24:34.698Z,28.17
2023-02-06T23:27:21.786Z,25.42
2023-02-06T23:30:09.564Z,24.40
2023-02-06T23:32:56.646Z,23.33
2023-02-06T23:35:43.951Z,26.13
2023-02-06T23:38:31.134Z,23.10
2023-02-06T23:41:25.976Z,27.23
2023-02-06T23:44:13.225Z,23.05
2023-02-06T23:47:00.377Z,24.83
2023-02-06T23:49:47.477Z,26.05
2023-02-06T23:52:34.488Z,21.52
2023-02-06T23:55:21.618Z,19.63
2023-02-06T23:58:08.664Z,20.80
